createdAt,value
2023-05-15T00:00:52.696Z,3.83
2023-05-15T00:03:55.663Z,3.28
2023-05-15T00:06:58.482Z,4.60
2023-05-15T00:10:00.812Z,3.13
2023-05-15T00:13:03.567Z,3.00
2023-05-15T00:16:08.522Z,2.70
2023-05-15T00:19:11.410Z,5.47
2023-05-15T00:22:14.387Z,3.33
2023-05-15T00:25:17.064Z,3.08
2023-05-15T00:28:19.922Z,5.50
2023-05-15T00:31:22.407Z,6.18
2023-05-15T00:34:25.241Z,3.97
2023-05-15T00:37:27.930Z,4.83
2023-05-15T00:40:31.811Z,2.95
2023-05-15T00:43:35.144Z,2.78
2023-05-15T00:46:38.435Z,4.32
2023-05-15T00:49:42.851Z,4.10
2023-05-15T00:52:46.091Z,3.78
2023-05-15T00:55:50.073Z,3.95
2023-05-15T00:58:54.161Z,4.40
2023-05-15T01:01:56.694Z,4.05
2023-05-15T01:04:59.173Z,4.55
2023-05-15T01:08:09.509Z,5.13
2023-05-15T01:11:13.721Z,4.05
2023-05-15T01:14:16.481Z,2.42
2023-05-15T01:17:18.915Z,3.50
2023-05-15T01:20:23.231Z,2.40
2023-05-15T01:23:50.711Z,3.33
2023-05-15T01:27:01.745Z,4.05
2023-05-15T01:30:22.792Z,2.30
2023-05-15T01:33:29.790Z,5.97
2023-05-15T01:36:39.316Z,3.90
2023-05-15T01:39:44.993Z,3.67
2023-05-15T01:42:56.277Z,5.88
2023-05-15T01:45:59.328Z,3.58
2023-05-15T01:49:03.769Z,2.92
2023-05-15T01:52:14.478Z,4.68
2023-05-15T01:55:18.732Z,5.43
2023-05-15T01:58:21.616Z,4.00
2023-05-15T02:01:25.091Z,4.60
2023-05-15T02:04:27.900Z,5.03
2023-05-15T02:07:32.421Z,2.95
2023-05-15T02:10:36.109Z,5.23
2023-05-15T02:13:39.583Z,4.22
2023-05-15T02:16:42.392Z,8.30
2023-05-15T02:19:44.965Z,3.55
2023-05-15T02:22:47.624Z,4.55
2023-05-15T02:26:07.854Z,4.82
2023-05-15T02:29:18.449Z,3.80
2023-05-15T02:32:39.067Z,5.07
2023-05-15T02:35:48.822Z,6.43
2023-05-15T02:38:56.652Z,4.88
2023-05-15T02:42:01.499Z,4.27
2023-05-15T02:45:05.522Z,4.43
2023-05-15T02:48:09.149Z,5.72
2023-05-15T02:51:12.077Z,4.15
2023-05-15T02:54:15.476Z,6.68
2023-05-15T02:57:18.238Z,4.13
2023-05-15T03:00:21.234Z,2.72
2023-05-15T03:03:23.832Z,4.83
2023-05-15T03:06:26.408Z,7.15
2023-05-15T03:09:29.153Z,3.90
2023-05-15T03:12:31.804Z,3.87
2023-05-15T03:15:34.209Z,4.30
2023-05-15T03:18:36.879Z,4.18
2023-05-15T03:21:39.377Z,5.93
2023-05-15T03:24:42.153Z,3.63
2023-05-15T03:27:45.312Z,3.63
2023-05-15T03:30:47.721Z,4.72
2023-05-15T03:33:51.584Z,4.40
2023-05-15T03:36:54.033Z,3.45
2023-05-15T03:39:56.693Z,5.35
2023-05-15T03:42:59.550Z,3.83
2023-05-15T03:46:02.042Z,6.40
2023-05-15T03:49:04.780Z,6.15
2023-05-15T03:52:10.326Z,6.15
2023-05-15T03:55:13.009Z,5.97
2023-05-15T03:58:15.706Z,4.18
2023-05-15T04:01:18.577Z,5.60
2023-05-15T04:04:21.330Z,4.87
2023-05-15T04:07:23.746Z,7.25
2023-05-15T04:10:26.433Z,7.78
2023-05-15T04:13:29.268Z,8.67
2023-05-15T04:16:31.726Z,5.80
2023-05-15T04:19:34.495Z,7.50
2023-05-15T04:22:37.259Z,7.50
2023-05-15T04:25:42.601Z,5.70
2023-05-15T04:28:56.246Z,5.10
2023-05-15T04:32:05.849Z,7.25
2023-05-15T04:35:10.603Z,5.50
2023-05-15T04:38:13.288Z,5.65
2023-05-15T04:41:15.877Z,5.85
2023-05-15T04:44:18.533Z,7.03
2023-05-15T04:47:21.130Z,7.32
2023-05-15T04:50:23.855Z,6.75
2023-05-15T04:53:26.492Z,8.18
2023-05-15T04:56:29.197Z,7.68
2023-05-15T04:59:31.783Z,8.45
2023-05-15T05:02:34.299Z,7.13
2023-05-15T05:05:36.745Z,7.23
2023-05-15T05:08:39.365Z,10.23
2023-05-15T05:11:45.081Z,4.57
2023-05-15T05:14:47.741Z,6.20
2023-05-15T05:17:50.319Z,8.02
2023-05-15T05:21:02.145Z,7.82
2023-05-15T05:24:04.614Z,7.07
2023-05-15T05:27:07.188Z,7.70
2023-05-15T05:30:10.225Z,7.68
2023-05-15T05:33:13.259Z,7.07
2023-05-15T05:36:16.199Z,8.10
2023-05-15T05:39:18.712Z,8.02
2023-05-15T05:42:21.187Z,7.45
2023-05-15T05:45:23.979Z,9.53
2023-05-15T05:48:30.050Z,8.85
2023-05-15T05:51:32.744Z,6.50
2023-05-15T05:54:35.229Z,5.60
2023-05-15T05:57:37.763Z,6.25
2023-05-15T06:00:40.313Z,8.48
2023-05-15T06:03:43.435Z,6.07
2023-05-15T06:06:46.093Z,5.03
2023-05-15T06:09:48.917Z,8.55
2023-05-15T06:12:51.434Z,5.97
2023-05-15T06:15:53.971Z,5.47
2023-05-15T06:18:56.383Z,8.27
2023-05-15T06:21:58.935Z,6.47
2023-05-15T06:25:02.975Z,6.88
2023-05-15T06:28:05.773Z,5.75
2023-05-15T06:31:08.299Z,5.55
2023-05-15T06:34:10.952Z,5.75
2023-05-15T06:37:13.438Z,6.23
2023-05-15T06:40:16.863Z,7.28
2023-05-15T06:43:19.287Z,5.18
2023-05-15T06:46:21.853Z,6.73
2023-05-15T06:49:25.344Z,9.48
2023-05-15T06:52:27.944Z,8.45
2023-05-15T06:55:30.452Z,5.78
2023-05-15T06:58:33.094Z,6.90
2023-05-15T07:01:35.877Z,7.65
2023-05-15T07:04:38.672Z,5.97
2023-05-15T07:07:41.746Z,6.63
2023-05-15T07:10:44.456Z,6.78
2023-05-15T07:13:46.938Z,6.03
2023-05-15T07:16:49.646Z,6.80
2023-05-15T07:19:52.407Z,7.43
2023-05-15T07:22:56.654Z,7.20
2023-05-15T07:26:01.036Z,7.20
2023-05-15T07:29:04.393Z,7.90
2023-05-15T07:32:07.416Z,9.98
2023-05-15T07:35:11.597Z,8.05
2023-05-15T07:38:14.031Z,6.50
2023-05-15T07:41:16.576Z,8.07
2023-05-15T07:44:18.957Z,5.55
2023-05-15T07:47:21.770Z,8.50
2023-05-15T07:50:24.470Z,8.10
2023-05-15T07:53:27.126Z,6.68
2023-05-15T07:56:29.723Z,8.50
2023-05-15T07:59:32.416Z,7.57
2023-05-15T08:02:35.047Z,7.25
2023-05-15T08:05:37.851Z,6.88
2023-05-15T08:08:40.573Z,5.83
2023-05-15T08:11:44.113Z,5.75
2023-05-15T08:14:56.566Z,7.22
2023-05-15T08:17:59.155Z,6.67
2023-05-15T08:21:02.953Z,6.53
2023-05-15T08:24:06.843Z,6.45
2023-05-15T08:27:09.735Z,6.80
2023-05-15T08:30:12.940Z,6.85
2023-05-15T08:33:15.396Z,9.85
2023-05-15T08:36:19.738Z,7.43
2023-05-15T08:39:22.852Z,9.20
2023-05-15T08:42:34.111Z,7.55
2023-05-15T08:45:37.065Z,7.88
2023-05-15T08:48:42.135Z,10.50
2023-05-15T08:51:45.066Z,7.60
2023-05-15T08:54:48.653Z,7.20
2023-05-15T08:57:51.576Z,7.53
2023-05-15T09:00:54.296Z,8.85
2023-05-15T09:03:56.968Z,7.32
2023-05-15T09:07:01.012Z,9.15
2023-05-15T09:10:04.156Z,8.57
2023-05-15T09:13:07.974Z,7.55
2023-05-15T09:16:10.629Z,8.65
2023-05-15T09:19:15.506Z,5.53
2023-05-15T09:22:24.283Z,8.20
2023-05-15T09:25:39.900Z,7.07
2023-05-15T09:28:42.626Z,6.50
2023-05-15T09:31:48.376Z,7.47
2023-05-15T09:34:50.926Z,9.63
2023-05-15T09:37:59.736Z,7.50
2023-05-15T09:41:06.709Z,8.70
2023-05-15T09:44:21.388Z,8.95
2023-05-15T09:47:24.638Z,6.03
2023-05-15T09:50:37.237Z,6.17
2023-05-15T09:53:39.829Z,9.00
2023-05-15T09:56:46.218Z,9.88
2023-05-15T09:59:49.144Z,7.85
2023-05-15T10:02:51.784Z,6.88
2023-05-15T10:06:01.978Z,7.75
2023-05-15T10:09:04.968Z,10.70
2023-05-15T10:12:08.476Z,9.27
2023-05-15T10:15:11.940Z,8.50
2023-05-15T10:18:14.969Z,7.68
2023-05-15T10:21:18.532Z,9.27
2023-05-15T10:24:21.610Z,7.55
2023-05-15T10:27:26.274Z,10.30
2023-05-15T10:30:31.326Z,7.78
2023-05-15T10:33:36.087Z,8.13
2023-05-15T10:36:38.673Z,8.70
2023-05-15T10:39:42.293Z,10.23
2023-05-15T10:42:47.680Z,10.10
2023-05-15T10:45:52.374Z,7.93
2023-05-15T10:48:54.957Z,12.25
2023-05-15T10:52:00.696Z,8.67
2023-05-15T10:55:06.827Z,10.77
2023-05-15T10:58:10.237Z,10.40
2023-05-15T11:01:44.941Z,10.05
2023-05-15T11:04:48.180Z,13.23
2023-05-15T11:08:15.747Z,9.98
2023-05-15T11:11:52.252Z,12.75
2023-05-15T11:14:54.643Z,13.60
2023-05-15T11:18:07.263Z,11.40
2023-05-15T11:21:10.045Z,11.00
2023-05-15T11:24:12.630Z,12.07
2023-05-15T11:27:22.280Z,11.48
2023-05-15T11:30:38.178Z,14.88
2023-05-15T11:33:41.038Z,10.07
2023-05-15T11:36:43.942Z,10.63
2023-05-15T11:39:47.598Z,11.20
2023-05-15T11:43:17.921Z,10.40
2023-05-15T11:46:22.192Z,11.93
2023-05-15T11:49:25.522Z,10.38
2023-05-15T11:52:30.729Z,9.82
2023-05-15T11:55:34.530Z,10.60
2023-05-15T11:58:39.104Z,12.35
2023-05-15T12:01:42.730Z,10.57
2023-05-15T12:04:45.337Z,13.13
2023-05-15T12:07:48.075Z,12.10
2023-05-15T12:10:50.656Z,12.45
2023-05-15T12:13:54.459Z,13.02
2023-05-15T12:17:04.586Z,12.00
2023-05-15T12:20:18.478Z,13.55
2023-05-15T12:23:23.107Z,12.23
2023-05-15T12:26:27.615Z,10.00
2023-05-15T12:29:33.219Z,12.10
2023-05-15T12:32:37.208Z,10.05
2023-05-15T12:35:45.062Z,11.50
2023-05-15T12:38:48.380Z,9.40
2023-05-15T12:41:54.191Z,15.32
2023-05-15T12:44:57.212Z,8.20
2023-05-15T12:47:59.742Z,13.97
2023-05-15T12:51:07.535Z,11.63
2023-05-15T12:54:18.381Z,10.82
2023-05-15T12:57:20.950Z,9.23
2023-05-15T13:00:24.152Z,8.82
2023-05-15T13:03:27.962Z,10.43
2023-05-15T13:06:44.965Z,7.40
2023-05-15T13:10:05.512Z,7.80
2023-05-15T13:13:08.492Z,9.02
2023-05-15T13:16:25.154Z,10.20
2023-05-15T13:19:27.673Z,10.77
2023-05-15T13:22:30.293Z,9.75
2023-05-15T13:25:33.395Z,12.15
2023-05-15T13:28:36.131Z,8.83
2023-05-15T13:31:39.063Z,7.25
2023-05-15T13:34:41.642Z,8.45
2023-05-15T13:37:44.209Z,10.43
2023-05-15T13:40:46.713Z,8.70
2023-05-15T13:43:49.446Z,9.32
2023-05-15T13:46:52.011Z,8.07
2023-05-15T13:49:58.104Z,8.23
2023-05-15T13:53:00.832Z,10.20
2023-05-15T13:56:03.539Z,8.35
2023-05-15T13:59:06.076Z,10.53
2023-05-15T14:02:08.475Z,8.95
2023-05-15T14:05:13.683Z,11.75
2023-05-15T14:08:16.497Z,8.90
2023-05-15T14:11:19.299Z,9.48
2023-05-15T14:14:21.794Z,11.02
2023-05-15T14:17:24.322Z,9.90
2023-05-15T14:20:27.024Z,8.80
2023-05-15T14:23:29.854Z,7.20
2023-05-15T14:26:32.490Z,7.88
2023-05-15T14:29:35.598Z,9.07
2023-05-15T14:32:38.128Z,7.50
2023-05-15T14:35:40.660Z,7.43
2023-05-15T14:38:45.602Z,8.38
2023-05-15T14:41:48.152Z,6.57
2023-05-15T14:44:50.853Z,9.77
2023-05-15T14:47:53.562Z,9.43
2023-05-15T14:50:57.142Z,13.20
2023-05-15T14:53:59.764Z,9.93
2023-05-15T14:57:02.569Z,9.00
2023-05-15T15:00:06.857Z,8.03
2023-05-15T15:03:10.720Z,6.65
2023-05-15T15:06:13.313Z,7.10
2023-05-15T15:09:15.842Z,7.10
2023-05-15T15:12:18.289Z,5.75
2023-05-15T15:15:21.355Z,6.32
2023-05-15T15:18:23.726Z,6.35
2023-05-15T15:21:26.705Z,5.77
2023-05-15T15:24:29.294Z,7.60
2023-05-15T15:27:32.382Z,7.32
2023-05-15T15:30:34.984Z,6.97
2023-05-15T15:33:37.535Z,5.43
2023-05-15T15:36:41.511Z,7.93
2023-05-15T15:39:44.236Z,7.55
2023-05-15T15:42:46.596Z,7.60
2023-05-15T15:45:49.373Z,5.32
2023-05-15T15:48:51.803Z,8.77
2023-05-15T15:51:54.679Z,6.07
2023-05-15T15:54:57.270Z,6.20
2023-05-15T15:57:59.721Z,7.18
2023-05-15T16:01:02.814Z,6.13
2023-05-15T16:04:05.410Z,5.75
2023-05-15T16:07:07.958Z,7.72
2023-05-15T16:10:13.400Z,5.80
2023-05-15T16:13:16.116Z,7.38
2023-05-15T16:16:18.834Z,8.30
2023-05-15T16:19:21.785Z,10.20
2023-05-15T16:22:24.336Z,7.67
2023-05-15T16:25:26.835Z,5.93
2023-05-15T16:28:29.475Z,8.80
2023-05-15T16:31:32.482Z,7.33
2023-05-15T16:34:35.641Z,5.22
2023-05-15T16:37:38.253Z,7.22
2023-05-15T16:40:41.297Z,11.43
2023-05-15T16:43:44.044Z,11.15
2023-05-15T16:46:46.645Z,13.43
2023-05-15T16:49:50.157Z,10.80
2023-05-15T16:52:53.193Z,10.17
2023-05-15T16:55:56.070Z,8.00
2023-05-15T16:58:58.513Z,8.77
2023-05-15T17:02:01.311Z,9.50
2023-05-15T17:05:04.041Z,7.03
2023-05-15T17:08:06.607Z,10.38
2023-05-15T17:11:10.432Z,10.57
2023-05-15T17:14:12.888Z,8.90
2023-05-15T17:17:15.497Z,10.18
2023-05-15T17:20:17.915Z,8.60
2023-05-15T17:23:22.938Z,7.07
2023-05-15T17:26:26.186Z,6.38
2023-05-15T17:29:28.962Z,6.65
2023-05-15T17:32:31.898Z,5.63
2023-05-15T17:35:34.490Z,7.15
2023-05-15T17:38:37.238Z,5.57
2023-05-15T17:41:39.946Z,7.63
2023-05-15T17:44:42.490Z,6.43
2023-05-15T17:47:45.139Z,5.65
2023-05-15T17:50:47.581Z,4.75
2023-05-15T17:53:50.134Z,4.17
2023-05-15T17:56:52.832Z,23.73
2023-05-15T17:59:55.343Z,21.85
2023-05-15T18:02:58.478Z,30.33
2023-05-15T18:06:00.973Z,8.02
2023-05-15T18:09:05.204Z,7.10
2023-05-15T18:12:08.032Z,4.53
2023-05-15T18:15:10.838Z,5.93
2023-05-15T18:18:13.430Z,5.53
2023-05-15T18:21:16.076Z,5.85
2023-05-15T18:24:18.702Z,6.37
2023-05-15T18:27:21.351Z,4.20
2023-05-15T18:30:24.212Z,4.88
2023-05-15T18:33:27.148Z,6.27
2023-05-15T18:36:29.561Z,4.60
2023-05-15T18:39:32.312Z,5.75
2023-05-15T18:42:35.547Z,4.53
2023-05-15T18:45:38.136Z,5.57
2023-05-15T18:48:40.721Z,3.72
2023-05-15T18:51:43.159Z,5.35
2023-05-15T18:54:46.040Z,5.17
2023-05-15T18:57:48.612Z,6.03
2023-05-15T19:00:51.045Z,5.80
2023-05-15T19:03:53.896Z,7.60
2023-05-15T19:06:56.294Z,7.40
2023-05-15T19:10:01.995Z,6.72
2023-05-15T19:13:04.774Z,7.00
2023-05-15T19:16:07.714Z,8.50
2023-05-15T19:19:10.734Z,7.10
2023-05-15T19:22:13.764Z,8.38
2023-05-15T19:25:16.410Z,7.67
2023-05-15T19:28:18.956Z,11.52
2023-05-15T19:34:30.493Z,9.23
2023-05-15T19:37:32.931Z,11.20
2023-05-15T19:40:36.306Z,10.65
2023-05-15T19:43:39.775Z,12.05
2023-05-15T19:46:42.403Z,9.52
2023-05-15T19:49:45.567Z,12.90
2023-05-15T19:52:48.109Z,7.82
2023-05-15T19:55:51.100Z,11.53
2023-05-15T19:58:53.985Z,8.38
2023-05-15T20:01:56.557Z,7.78
2023-05-15T20:04:59.337Z,7.53
2023-05-15T20:08:01.734Z,7.80
2023-05-15T20:11:04.323Z,8.15
2023-05-15T20:14:06.827Z,6.68
2023-05-15T20:17:09.222Z,8.18
2023-05-15T20:20:12.317Z,6.05
2023-05-15T20:23:15.018Z,8.30
2023-05-15T20:26:18.937Z,7.57
2023-05-15T20:29:21.526Z,8.57
2023-05-15T20:32:24.080Z,6.53
2023-05-15T20:35:27.126Z,7.00
2023-05-15T20:38:29.946Z,6.88
2023-05-15T20:41:33.166Z,6.63
2023-05-15T20:44:38.478Z,6.07
2023-05-15T20:47:41.099Z,8.15
2023-05-15T20:50:43.828Z,6.72
2023-05-15T20:53:46.256Z,8.95
2023-05-15T20:56:48.820Z,7.17
2023-05-15T20:59:51.333Z,6.53
2023-05-15T21:02:54.162Z,6.50
2023-05-15T21:05:57.769Z,5.20
2023-05-15T21:09:00.338Z,6.40
2023-05-15T21:12:03.876Z,7.65
2023-05-15T21:15:07.464Z,8.20
2023-05-15T21:18:10.136Z,6.65
2023-05-15T21:21:12.790Z,7.22
2023-05-15T21:24:16.563Z,6.10
2023-05-15T21:27:19.112Z,7.33
2023-05-15T21:30:21.929Z,7.13
2023-05-15T21:33:24.545Z,7.43
2023-05-15T21:36:27.284Z,6.93
2023-05-15T21:39:29.681Z,5.90
2023-05-15T21:42:32.327Z,7.40
2023-05-15T21:45:35.005Z,10.18
2023-05-15T21:48:37.352Z,9.63
2023-05-15T21:51:40.255Z,7.63
2023-05-15T21:54:44.500Z,8.00
2023-05-15T21:57:47.167Z,9.47
2023-05-15T22:00:49.611Z,7.35
2023-05-15T22:03:52.262Z,8.10
2023-05-15T22:06:54.746Z,7.77
2023-05-15T22:09:57.444Z,8.77
2023-05-15T22:13:02.710Z,8.98
2023-05-15T22:16:06.351Z,8.30
2023-05-15T22:19:18.503Z,8.57
2023-05-15T22:22:31.585Z,9.77
2023-05-15T22:25:34.054Z,10.85
2023-05-15T22:28:36.680Z,8.53
2023-05-15T22:31:39.444Z,9.88
2023-05-15T22:34:42.047Z,9.77
2023-05-15T22:37:45.904Z,9.67
2023-05-15T22:40:52.278Z,8.18
2023-05-15T22:43:55.067Z,9.57
2023-05-15T22:46:57.905Z,10.27
2023-05-15T22:50:00.372Z,9.30
2023-05-15T22:53:03.202Z,9.10
2023-05-15T22:56:06.019Z,9.63
2023-05-15T22:59:08.653Z,12.07
2023-05-15T23:02:11.285Z,11.90
2023-05-15T23:05:13.698Z,11.10
2023-05-15T23:08:16.279Z,11.03
2023-05-15T23:11:18.631Z,10.93
2023-05-15T23:14:21.803Z,11.05
2023-05-15T23:17:26.331Z,8.68
2023-05-15T23:20:29.320Z,10.48
2023-05-15T23:23:31.941Z,9.63
2023-05-15T23:26:34.648Z,9.48
2023-05-15T23:29:37.250Z,10.13
2023-05-15T23:32:39.925Z,12.25
2023-05-15T23:35:43.315Z,9.32
2023-05-15T23:38:45.904Z,10.23
2023-05-15T23:41:48.415Z,9.15
2023-05-15T23:44:51.249Z,9.80
2023-05-15T23:47:53.895Z,8.63
2023-05-15T23:50:56.296Z,8.55
2023-05-15T23:53:59.098Z,9.98
2023-05-15T23:57:02.884Z,8.98
